Time;durP1;ratioP1;P1;durP2;ratioP2;P2;SDS_P1;SDS_P2;PMS_P1;PMS_P2;Temp;Humidity;BMP_temperature;BMP_pressure;BME280_temperature;BME280_humidity;BME280_pressure;Samples;Min_cycle;Max_cycle;Signal;HPM_P1;HPM_P2
2022/07/05 00:00:44;;;;;;;1.60;1.50;;;;;;;24.10;43.86;102099.13;4758649;30;20097;-71
2022/07/05 00:03:10;;;;;;;2.08;1.60;;;;;;;24.19;43.70;102107.88;4756728;30;20051;-71
2022/07/05 00:05:36;;;;;;;1.80;1.60;;;;;;;24.17;43.78;102109.88;4759678;30;20063;-71
2022/07/05 00:08:03;;;;;;;2.38;1.60;;;;;;;24.01;44.09;102116.97;4759862;30;20048;-71
2022/07/05 00:10:29;;;;;;;1.80;1.70;;;;;;;24.07;44.12;102112.81;4759537;30;20465;-71
2022/07/05 00:12:54;;;;;;;1.73;1.60;;;;;;;24.08;44.10;102122.44;4753657;30;20032;-71
2022/07/05 00:15:20;;;;;;;2.17;1.95;;;;;;;24.07;43.94;102113.63;4750780;30;20047;-71
2022/07/05 00:17:45;;;;;;;2.13;1.60;;;;;;;24.03;44.11;102122.94;4758407;30;20055;-71
2022/07/05 00:20:11;;;;;;;2.00;1.60;;;;;;;24.03;44.43;102122.13;4754070;30;20060;-71
2022/07/05 00:22:37;;;;;;;4.53;1.98;;;;;;;24.05;44.11;102114.78;4754408;30;20071;-71
2022/07/05 00:25:02;;;;;;;2.47;1.50;;;;;;;24.04;44.04;102113.97;4759236;30;20154;-71
2022/07/05 00:27:28;;;;;;;2.60;1.58;;;;;;;24.07;44.08;102118.94;4756784;30;20048;-71
2022/07/05 00:29:54;;;;;;;2.17;1.70;;;;;;;24.06;43.98;102114.63;4750339;30;20540;-71
2022/07/05 00:32:19;;;;;;;2.75;1.85;;;;;;;24.06;43.99;102125.28;4760014;30;20078;-71
2022/07/05 00:34:45;;;;;;;1.88;1.50;;;;;;;24.02;44.13;102123.13;4759189;30;20043;-71
2022/07/05 00:37:10;;;;;;;2.15;1.70;;;;;;;23.99;44.16;102120.81;4769110;29;20098;-71
2022/07/05 00:39:36;;;;;;;2.50;1.80;;;;;;;24.09;43.90;102118.78;4754616;30;20097;-71
2022/07/05 00:42:02;;;;;;;1.92;1.65;;;;;;;24.00;44.26;102119.81;4753888;30;20050;-71
2022/07/05 00:44:34;;;;;;;2.28;1.65;;;;;;;24.05;44.21;102126.25;4757462;30;20055;-71
2022/07/05 00:47:00;;;;;;;2.15;1.95;;;;;;;23.97;44.32;102128.97;4753393;30;20043;-71
2022/07/05 00:49:26;;;;;;;2.97;1.85;;;;;;;24.00;44.14;102120.66;4756473;30;20044;-71
2022/07/05 00:51:52;;;;;;;1.63;1.50;;;;;;;24.00;44.15;102127.81;4755807;30;20039;-71
2022/07/05 00:54:18;;;;;;;1.65;1.55;;;;;;;24.00;44.16;102125.13;4755235;30;20054;-71
2022/07/05 00:56:44;;;;;;;2.55;1.60;;;;;;;23.96;44.22;102119.34;4758762;30;20679;-71
2022/07/05 00:59:09;;;;;;;2.03;1.73;;;;;;;23.96;44.18;102116.69;4753889;30;20049;-71
2022/07/05 01:01:35;;;;;;;2.53;1.52;;;;;;;23.97;44.48;102120.19;4755500;30;20047;-71
2022/07/05 01:04:00;;;;;;;2.47;1.55;;;;;;;24.00;44.09;102120.66;4757975;30;20522;-71
2022/07/05 01:06:26;;;;;;;1.98;1.77;;;;;;;23.99;44.28;102128.81;4750211;30;20071;-70
2022/07/05 01:08:52;;;;;;;1.70;1.60;;;;;;;23.96;44.15;102127.34;4758220;30;20050;-71
2022/07/05 01:11:17;;;;;;;2.80;1.70;;;;;;;24.03;44.14;102111.47;4758236;30;20044;-71
2022/07/05 01:13:43;;;;;;;2.38;1.88;;;;;;;23.96;44.10;102119.34;4754555;30;20059;-71
2022/07/05 01:16:09;;;;;;;1.60;1.40;;;;;;;23.89;44.37;102118.41;4766891;29;20051;-71
2022/07/05 01:18:35;;;;;;;2.67;1.50;;;;;;;23.93;44.40;102113.56;4757425;30;20154;-71
2022/07/05 01:21:02;;;;;;;1.55;1.45;;;;;;;24.01;44.05;102116.16;4758191;30;20043;-71
2022/07/05 01:23:29;;;;;;;2.97;1.85;;;;;;;24.00;44.01;102109.16;4757052;30;20047;-70
2022/07/05 01:25:56;;;;;;;3.80;1.90;;;;;;;23.85;44.23;102103.78;4754463;30;20486;-71
2022/07/05 01:28:22;;;;;;;3.13;1.90;;;;;;;23.99;44.13;102110.19;4754723;30;20056;-71
2022/07/05 01:30:48;;;;;;;3.33;2.08;;;;;;;24.00;44.01;102117.16;4755167;30;20039;-70
2022/07/05 01:33:14;;;;;;;2.65;1.80;;;;;;;23.94;44.17;102115.22;4757361;30;20059;-71
2022/07/05 01:35:39;;;;;;;1.90;1.73;;;;;;;23.95;44.24;102120.34;4754434;30;20040;-70
2022/07/05 01:38:06;;;;;;;2.75;2.00;;;;;;;23.91;44.31;102112.91;4754298;30;20524;-70
2022/07/05 01:40:31;;;;;;;2.75;1.60;;;;;;;23.97;44.16;102114.84;4754665;30;20068;-71
2022/07/05 01:42:58;;;;;;;1.95;1.65;;;;;;;23.90;44.02;102104.09;4758294;30;20105;-71
2022/07/05 01:45:39;;;;;;;2.42;1.52;;;;;;;24.03;43.83;102109.66;4757310;30;20480;-71
2022/07/05 01:48:07;;;;;;;2.03;1.83;;;;;;;24.00;43.96;102109.16;4758337;30;20062;-71
2022/07/05 01:50:48;;;;;;;2.08;1.88;;;;;;;24.00;44.01;102114.50;4754508;30;20044;-71
2022/07/05 01:53:22;;;;;;;2.17;1.70;;;;;;;23.98;44.12;102112.00;4756849;30;20043;-69
2022/07/05 01:55:48;;;;;;;1.98;1.80;;;;;;;23.89;44.16;102117.56;4754209;30;20559;-70
2022/07/05 01:58:14;;;;;;;2.88;1.80;;;;;;;23.89;44.06;102118.41;4751083;30;20048;-70
2022/07/05 02:00:47;;;;;;;2.03;1.77;;;;;;;24.01;44.09;102113.50;4755350;30;20509;-70
2022/07/05 02:03:14;;;;;;;2.22;1.60;;;;;;;23.94;43.99;102108.06;4754758;30;20044;-70
2022/07/05 02:05:41;;;;;;;1.50;1.40;;;;;;;23.96;44.11;102102.56;4754461;30;20036;-70
2022/07/05 02:08:08;;;;;;;2.15;1.67;;;;;;;23.92;44.15;102095.94;4771745;29;20104;-70
2022/07/05 02:10:35;;;;;;;2.63;1.77;;;;;;;23.83;44.26;102103.13;4772739;29;20050;-70
2022/07/05 02:13:02;;;;;;;1.92;1.80;;;;;;;23.78;44.50;102103.66;4758220;30;20036;-70
2022/07/05 02:15:30;;;;;;;2.72;1.90;;;;;;;23.85;43.95;102109.09;4754927;30;20498;-70
2022/07/05 02:17:56;;;;;;;2.28;1.90;;;;;;;23.83;44.17;102105.78;4770531;29;20063;-70
2022/07/05 02:20:21;;;;;;;1.80;1.50;;;;;;;23.85;44.34;102108.28;4769571;29;20109;-70
2022/07/05 02:22:47;;;;;;;1.60;1.50;;;;;;;23.86;44.17;102105.44;4753335;30;20048;-70
2022/07/05 02:25:13;;;;;;;2.30;1.88;;;;;;;23.86;44.00;102104.59;4771380;29;20415;-70
2022/07/05 02:27:39;;;;;;;1.33;1.20;;;;;;;23.76;44.39;102108.34;4751742;30;20687;-70
2022/07/05 02:30:06;;;;;;;2.40;1.77;;;;;;;23.81;44.24;102102.47;4756769;30;20067;-70
2022/07/05 02:32:37;;;;;;;2.00;1.80;;;;;;;23.84;44.38;102104.78;4754356;30;20067;-70
2022/07/05 02:35:05;;;;;;;1.75;1.63;;;;;;;23.86;44.29;102107.25;4756546;30;20047;-70
2022/07/05 02:37:32;;;;;;;1.70;1.60;;;;;;;23.81;44.14;102107.78;4767937;29;20116;-70
2022/07/05 02:39:58;;;;;;;1.88;1.60;;;;;;;23.78;44.33;102108.97;4758240;30;20043;-70
2022/07/05 02:42:23;;;;;;;1.65;1.55;;;;;;;23.88;44.22;102102.59;4761472;30;21582;-70
2022/07/05 02:44:49;;;;;;;1.60;1.50;;;;;;;23.83;44.49;102103.13;4771212;29;20067;-70
2022/07/05 02:47:16;;;;;;;2.95;1.77;;;;;;;23.81;44.21;102102.47;4755091;30;20519;-70
2022/07/05 02:49:42;;;;;;;3.42;1.80;;;;;;;23.81;44.01;102099.81;4758737;30;20051;-70
2022/07/05 02:52:08;;;;;;;2.08;1.75;;;;;;;23.74;44.34;102097.03;4744591;30;20560;-70
2022/07/05 02:54:34;;;;;;;2.85;1.67;;;;;;;23.77;44.07;102094.03;4774011;29;20048;-70
2022/07/05 02:57:01;;;;;;;2.25;1.70;;;;;;;23.87;43.96;102100.94;4760774;30;20498;-70
2022/07/05 02:59:27;;;;;;;1.83;1.70;;;;;;;23.75;44.32;102106.69;4755781;30;20047;-70
2022/07/05 03:01:53;;;;;;;1.65;1.55;;;;;;;23.78;44.15;102102.84;4754882;30;20044;-70
2022/07/05 03:04:19;;;;;;;1.92;1.80;;;;;;;23.70;44.42;102105.56;4756645;30;20113;-70
2022/07/05 03:06:51;;;;;;;1.80;1.70;;;;;;;23.86;44.07;102101.94;4758806;30;20111;-70
2022/07/05 03:09:17;;;;;;;2.00;1.70;;;;;;;23.83;44.14;102104.97;4759458;30;20102;-70
2022/07/05 03:11:45;;;;;;;1.70;1.60;;;;;;;23.76;44.10;102110.16;4757114;30;20407;-70
2022/07/05 03:14:11;;;;;;;1.92;1.75;;;;;;;23.72;44.38;102116.84;4761137;30;20051;-70
2022/07/05 03:16:38;;;;;;;1.92;1.80;;;;;;;23.77;44.17;102109.16;4741072;30;20101;-70
2022/07/05 03:19:04;;;;;;;2.05;1.83;;;;;;;23.72;44.11;102119.50;4758722;30;20047;-70
2022/07/05 03:21:31;;;;;;;3.38;1.98;;;;;;;23.70;44.48;102108.22;4756168;30;20576;-70
2022/07/05 03:23:57;;;;;;;2.17;1.73;;;;;;;23.74;44.34;102120.16;4742636;30;20044;-70
2022/07/05 03:26:22;;;;;;;4.15;1.67;;;;;;;23.76;44.16;102118.16;4756003;30;20043;-70
2022/07/05 03:28:48;;;;;;;1.75;1.65;;;;;;;23.65;44.23;102126.50;4756362;30;20076;-70
2022/07/05 03:31:14;;;;;;;2.20;1.70;;;;;;;23.75;44.19;102127.94;4758320;30;20051;-70
2022/07/05 03:33:41;;;;;;;2.15;1.95;;;;;;;23.77;44.18;102123.28;4771017;29;20060;-70
2022/07/05 03:36:09;;;;;;;3.00;1.80;;;;;;;23.68;44.47;102121.66;4769378;29;20044;-70
2022/07/05 03:38:37;;;;;;;2.45;1.80;;;;;;;23.72;44.38;102116.84;4757898;30;21775;-70
2022/07/05 03:41:03;;;;;;;2.17;1.85;;;;;;;23.70;44.51;102122.34;4754381;30;20055;-70
2022/07/05 03:43:29;;;;;;;2.25;1.80;;;;;;;23.68;44.50;102120.81;4757800;30;20060;-70
2022/07/05 03:45:55;;;;;;;1.83;1.65;;;;;;;23.69;44.41;102118.00;4758321;30;20211;-70
2022/07/05 03:48:21;;;;;;;1.70;1.48;;;;;;;23.73;44.46;102121.16;4752281;30;20410;-70
2022/07/05 03:50:49;;;;;;;1.58;1.48;;;;;;;23.66;44.35;102121.00;4759274;30;20193;-70
2022/07/05 03:53:15;;;;;;;2.33;1.77;;;;;;;23.66;44.57;102122.84;4740815;30;20040;-70
2022/07/05 03:55:42;;;;;;;2.08;1.60;;;;;;;23.74;44.48;102120.16;4756982;30;20411;-70
2022/07/05 03:58:08;;;;;;;3.47;1.90;;;;;;;23.62;44.51;102125.03;4760818;30;20052;-70
2022/07/05 04:00:34;;;;;;;1.75;1.65;;;;;;;23.60;44.64;102132.34;4754334;30;20056;-70
2022/07/05 04:03:03;;;;;;;1.98;1.77;;;;;;;23.72;44.24;102128.31;4770742;29;20122;-70
2022/07/05 04:05:30;;;;;;;1.73;1.63;;;;;;;23.60;44.56;102134.19;4755163;30;20052;-70
2022/07/05 04:07:56;;;;;;;2.00;1.70;;;;;;;23.67;44.67;102130.63;4759490;30;20044;-70
2022/07/05 04:10:35;;;;;;;2.63;1.80;;;;;;;23.54;44.89;102133.03;4757425;30;20455;-71
2022/07/05 04:13:01;;;;;;;2.20;1.90;;;;;;;23.58;44.58;102130.88;4756346;30;20558;-70
2022/07/05 04:15:28;;;;;;;2.15;1.98;;;;;;;23.64;44.51;102133.66;4756165;30;20084;-70
2022/07/05 04:17:57;;;;;;;2.00;1.70;;;;;;;23.58;44.66;102138.84;4755721;30;20123;-70
2022/07/05 04:20:25;;;;;;;2.25;1.88;;;;;;;23.58;44.70;102138.84;4742462;30;20506;-70
2022/07/05 04:22:52;;;;;;;3.22;1.70;;;;;;;23.71;44.34;102144.44;4755750;30;20059;-70
2022/07/05 04:25:20;;;;;;;2.17;1.70;;;;;;;23.70;44.19;102140.13;4757464;30;20050;-70
2022/07/05 04:27:54;;;;;;;2.15;1.95;;;;;;;23.66;44.39;102141.44;4758166;30;20044;-70
2022/07/05 04:30:23;;;;;;;2.17;1.77;;;;;;;23.62;44.53;102142.81;4737465;30;20146;-70
2022/07/05 04:32:49;;;;;;;3.15;1.73;;;;;;;23.59;44.48;102138.66;4754225;30;20595;-70
2022/07/05 04:35:16;;;;;;;2.03;1.73;;;;;;;23.60;44.52;102142.97;4755712;30;20346;-70
2022/07/05 04:37:43;;;;;;;1.95;1.77;;;;;;;23.58;44.43;102147.66;4757549;30;20097;-70
2022/07/05 04:40:12;;;;;;;2.20;1.55;;;;;;;23.57;44.43;102140.69;4754861;30;20080;-70
2022/07/05 04:42:39;;;;;;;1.67;1.58;;;;;;;23.62;44.34;102148.94;4741877;30;20050;-70
2022/07/05 04:45:05;;;;;;;3.53;2.33;;;;;;;23.61;44.68;102146.47;4772637;29;20072;-70
2022/07/05 04:47:31;;;;;;;1.90;1.80;;;;;;;23.60;44.42;102150.97;4767041;29;20059;-70
2022/07/05 04:49:58;;;;;;;2.85;1.95;;;;;;;23.59;44.44;102153.78;4756772;30;20035;-69
2022/07/05 04:52:24;;;;;;;3.63;1.70;;;;;;;23.62;44.54;102154.28;4756137;30;20185;-69
2022/07/05 04:54:50;;;;;;;2.13;1.75;;;;;;;23.62;44.47;102156.94;4743403;30;20056;-69
2022/07/05 04:57:16;;;;;;;1.55;1.45;;;;;;;23.58;44.70;102150.31;4755794;30;20047;-70
2022/07/05 04:59:41;;;;;;;2.30;1.55;;;;;;;23.63;44.40;102152.44;4760026;30;20414;-70
2022/07/05 05:02:07;;;;;;;2.97;1.70;;;;;;;23.60;44.64;102160.78;4756148;30;20128;-69
2022/07/05 05:04:32;;;;;;;1.85;1.75;;;;;;;23.58;44.54;102160.94;4755621;30;20051;-70
2022/07/05 05:06:58;;;;;;;2.85;1.90;;;;;;;23.60;44.67;102158.94;4758925;30;20040;-70
2022/07/05 05:09:24;;;;;;;1.58;1.48;;;;;;;23.59;44.76;102159.94;4757347;30;20059;-70
2022/07/05 05:11:49;;;;;;;2.50;1.70;;;;;;;23.66;44.47;102154.75;4759087;30;20043;-70
2022/07/05 05:14:15;;;;;;;3.90;1.70;;;;;;;23.56;44.78;102157.59;4758125;30;20043;-69
2022/07/05 05:16:40;;;;;;;1.60;1.50;;;;;;;23.58;44.66;102158.28;4756889;30;20055;-72
2022/07/05 05:19:07;;;;;;;1.60;1.50;;;;;;;23.57;44.70;102158.47;4756594;30;20047;-70
2022/07/05 05:21:32;;;;;;;1.95;1.75;;;;;;;23.49;44.75;102154.78;4755213;30;20057;-69
2022/07/05 05:23:58;;;;;;;3.03;1.95;;;;;;;23.55;44.69;102152.47;4755595;30;21853;-70
2022/07/05 05:26:24;;;;;;;3.40;1.95;;;;;;;23.59;44.57;102159.13;4756924;30;20067;-70
2022/07/05 05:28:49;;;;;;;2.00;1.80;;;;;;;23.61;44.74;102160.59;4756255;30;20082;-70
2022/07/05 05:31:15;;;;;;;2.25;1.80;;;;;;;23.56;44.66;102154.94;4757363;30;20763;-69
2022/07/05 05:33:41;;;;;;;2.50;1.77;;;;;;;23.57;44.88;102164.59;4756323;30;20056;-70
2022/07/05 05:36:07;;;;;;;1.98;1.73;;;;;;;23.59;44.69;102162.59;4756422;30;20038;-69
2022/07/05 05:38:32;;;;;;;1.88;1.77;;;;;;;23.59;44.80;102162.59;4755813;30;20851;-70
2022/07/05 05:40:58;;;;;;;1.77;1.58;;;;;;;23.60;44.69;102160.78;4759017;30;20138;-69
2022/07/05 05:43:23;;;;;;;1.83;1.73;;;;;;;23.67;44.63;102167.03;4758947;30;20044;-69
2022/07/05 05:45:49;;;;;;;1.92;1.80;;;;;;;23.60;44.90;102166.91;4754625;30;20525;-70
2022/07/05 05:48:14;;;;;;;1.88;1.77;;;;;;;23.65;44.59;102161.06;4756771;30;20043;-70
2022/07/05 05:50:40;;;;;;;2.03;1.88;;;;;;;23.72;44.46;102162.06;4751416;30;20419;-70
2022/07/05 05:53:06;;;;;;;1.90;1.80;;;;;;;23.63;44.69;102168.41;4756207;30;20136;-69
2022/07/05 05:55:32;;;;;;;2.03;1.55;;;;;;;23.67;44.39;102169.69;4757067;30;20051;-69
2022/07/05 05:58:12;;;;;;;1.58;1.48;;;;;;;23.67;44.76;102172.34;4755485;30;20071;-69
2022/07/05 06:00:37;;;;;;;2.08;1.70;;;;;;;23.73;44.74;102174.34;4756840;30;20054;-70
2022/07/05 06:03:03;;;;;;;1.90;1.70;;;;;;;23.75;44.62;102185.63;4757026;30;20052;-70
2022/07/05 06:05:28;;;;;;;2.83;2.00;;;;;;;23.77;44.44;102180.97;4756079;30;20044;-69
2022/07/05 06:07:55;;;;;;;2.10;1.85;;;;;;;23.71;44.47;102182.50;4753855;30;20052;-69
2022/07/05 06:10:25;;;;;;;2.38;1.60;;;;;;;23.76;44.68;102184.63;4758827;30;20047;-69
2022/07/05 06:12:52;;;;;;;1.73;1.60;;;;;;;23.73;44.92;102182.31;4756441;30;20495;-69
2022/07/05 06:15:19;;;;;;;2.15;1.75;;;;;;;23.73;44.95;102187.66;4757926;30;20518;-70
2022/07/05 06:17:44;;;;;;;2.65;1.90;;;;;;;23.79;44.71;102186.94;4760470;30;20426;-69
2022/07/05 06:20:18;;;;;;;2.47;1.77;;;;;;;23.74;44.77;102184.81;4763424;30;20035;-70
2022/07/05 06:22:44;;;;;;;1.48;1.35;;;;;;;23.76;44.79;102184.63;4765185;30;20044;-69
2022/07/05 06:25:09;;;;;;;1.45;1.35;;;;;;;23.82;44.76;102181.28;4763328;30;20066;-69
2022/07/05 06:27:46;;;;;;;1.90;1.67;;;;;;;23.77;44.73;102179.13;4765735;30;20124;-70
2022/07/05 06:30:16;;;;;;;2.45;2.22;;;;;;;23.85;44.69;102188.91;4760662;30;20104;-70
2022/07/05 06:32:44;;;;;;;3.22;1.92;;;;;;;23.78;45.26;102188.78;4760179;30;20051;-69
2022/07/05 06:35:09;;;;;;;1.65;1.55;;;;;;;23.29;44.77;102189.91;4759871;30;20112;-69
2022/07/05 06:37:47;;;;;;;3.78;1.75;;;;;;;23.08;45.63;102185.97;4757310;30;20645;-69
2022/07/05 06:40:17;;;;;;;2.80;1.58;;;;;;;23.24;44.51;102192.25;4759872;30;20047;-67
2022/07/05 06:42:43;;;;;;;4.18;1.60;;;;;;;23.32;44.14;102190.38;4755957;30;20057;-67
2022/07/05 06:45:10;;;;;;;2.67;2.03;;;;;;;23.25;44.27;102188.59;4777096;29;20380;-67
2022/07/05 06:47:35;;;;;;;2.65;1.90;;;;;;;23.00;44.73;102193.97;4771337;29;20134;-68
2022/07/05 06:50:05;;;;;;;5.63;2.20;;;;;;;22.46;45.53;102195.41;4757010;30;20396;-68
2022/07/05 06:52:32;;;;;;;3.75;1.90;;;;;;;22.62;45.69;102198.06;4760038;30;20060;-68
2022/07/05 06:54:58;;;;;;;3.17;1.83;;;;;;;22.69;45.37;102196.41;4759977;30;20044;-67
2022/07/05 06:57:24;;;;;;;2.80;1.63;;;;;;;22.74;45.19;102198.56;4759786;30;20737;-67
2022/07/05 06:59:50;;;;;;;5.45;1.80;;;;;;;23.00;44.56;102207.25;4755045;30;20051;-67
2022/07/05 07:02:16;;;;;;;6.60;1.95;;;;;;;22.69;44.82;102199.06;4758551;30;20067;-67
2022/07/05 07:04:43;;;;;;;3.70;1.80;;;;;;;22.45;45.57;102201.72;4759675;30;20175;-67
2022/07/05 07:09:56;;;;;;;6.68;2.10;;;;;;;23.16;43.97;102198.41;4758093;30;20050;-67
2022/07/05 07:12:22;;;;;;;3.45;1.85;;;;;;;23.01;44.33;102197.44;4755493;30;20082;-67
2022/07/05 07:14:47;;;;;;;3.15;1.50;;;;;;;23.22;44.38;102192.41;4757115;30;20535;-67
2022/07/05 07:17:13;;;;;;;2.83;1.48;;;;;;;23.57;43.50;102201.84;4751230;30;20051;-67
2022/07/05 07:19:38;;;;;;;3.40;1.33;;;;;;;23.13;43.31;102202.22;4749709;30;20469;-67
2022/07/05 07:22:04;;;;;;;2.60;1.70;;;;;;;22.98;43.48;102201.28;4755765;30;20036;-67
2022/07/05 07:24:29;;;;;;;1.52;1.33;;;;;;;23.26;43.20;102200.88;4756751;30;20047;-67
2022/07/05 07:27:04;;;;;;;3.65;1.17;;;;;;;22.92;43.28;102204.56;4756828;30;20068;-67
2022/07/05 07:29:35;;;;;;;2.63;1.48;;;;;;;23.35;43.12;102213.16;4757518;30;20525;-67
2022/07/05 07:32:02;;;;;;;2.17;1.40;;;;;;;23.60;43.19;102205.97;4757351;30;20074;-67
2022/07/05 07:34:29;;;;;;;2.78;1.58;;;;;;;23.51;42.51;102202.47;4759920;29;20043;-67
2022/07/05 07:36:55;;;;;;;2.10;1.10;;;;;;;23.30;42.70;102210.16;4758812;30;20104;-67
2022/07/05 07:39:22;;;;;;;3.10;1.50;;;;;;;23.38;43.09;102211.00;4756652;30;20070;-67
2022/07/05 07:41:48;;;;;;;2.20;1.60;;;;;;;23.13;42.63;102217.34;4758778;30;20054;-66
2022/07/05 07:44:13;;;;;;;3.35;1.50;;;;;;;22.89;43.21;102221.69;4756749;30;20036;-69
2022/07/05 07:46:39;;;;;;;3.72;1.50;;;;;;;23.44;42.48;102209.47;4711688;30;20040;-67
2022/07/05 07:49:05;;;;;;;3.80;1.80;;;;;;;24.06;40.98;102213.09;4757930;30;20044;-67
2022/07/05 07:51:31;;;;;;;2.03;1.40;;;;;;;23.82;41.75;102223.84;4755902;30;20121;-66
2022/07/05 07:53:57;;;;;;;3.60;1.50;;;;;;;24.10;41.04;102214.41;4760556;30;20055;-65
2022/07/05 07:56:22;;;;;;;3.63;1.30;;;;;;;24.32;40.94;102217.28;4758148;30;20046;-63
2022/07/05 07:58:48;;;;;;;6.22;1.65;;;;;;;24.67;40.17;102218.53;4771917;29;20044;-66
2022/07/05 08:01:14;;;;;;;2.85;1.65;;;;;;;24.78;39.59;102207.47;4747826;30;20044;-64
2022/07/05 08:03:42;;;;;;;3.40;1.50;;;;;;;24.88;39.81;102213.38;4750543;30;20047;-67
2022/07/05 08:06:10;;;;;;;6.43;1.50;;;;;;;24.88;39.64;102209.88;4760824;30;20528;-65
2022/07/05 08:08:39;;;;;;;2.67;1.42;;;;;;;24.70;39.51;102219.00;4756695;30;22201;-68
2022/07/05 08:11:06;;;;;;;1.98;1.10;;;;;;;24.93;39.35;102216.31;4756957;30;20597;-68
2022/07/05 08:13:31;;;;;;;3.10;1.50;;;;;;;24.81;39.51;102214.28;4758555;30;20067;-66
2022/07/05 08:15:57;;;;;;;4.40;1.42;;;;;;;24.84;39.26;102213.91;4758222;30;20104;-69
2022/07/05 08:21:30;;;;;;;7.05;1.63;;;;;;;25.05;39.01;102218.59;4740292;30;20993;-63
2022/07/05 08:23:56;;;;;;;2.78;1.40;;;;;;;24.80;39.10;102221.44;4758310;30;20073;-66
2022/07/05 08:26:22;;;;;;;2.90;1.00;;;;;;;24.82;38.80;102219.41;4757588;30;20140;-62
2022/07/05 08:28:48;;;;;;;4.15;1.17;;;;;;;24.97;38.79;102222.13;4756112;30;20057;-64
2022/07/05 08:31:13;;;;;;;9.38;1.60;;;;;;;24.73;38.99;102223.16;4752945;30;20465;-63
2022/07/05 08:33:39;;;;;;;3.05;0.98;;;;;;;25.15;38.61;102217.31;4737778;30;21258;-66
2022/07/05 08:36:05;;;;;;;5.38;1.33;;;;;;;24.84;38.83;102217.41;4741592;30;20043;-63
2022/07/05 08:38:31;;;;;;;2.83;1.35;;;;;;;25.17;38.69;102214.47;4752399;30;20131;-68
2022/07/05 08:40:56;;;;;;;4.35;1.30;;;;;;;25.05;38.31;102210.59;4751775;30;20048;-65
2022/07/05 08:43:23;;;;;;;2.97;1.35;;;;;;;25.09;38.84;102204.69;4754613;30;20031;-66
2022/07/05 08:45:53;;;;;;;4.60;1.50;;;;;;;25.29;38.83;102213.81;4755622;30;20797;-68
2022/07/05 08:48:20;;;;;;;3.28;1.30;;;;;;;25.35;38.65;102204.28;4752113;30;20470;-69
2022/07/05 08:50:48;;;;;;;3.35;1.50;;;;;;;25.39;37.96;102210.06;4745744;30;20048;-76
2022/07/05 08:53:24;;;;;;;3.90;1.33;;;;;;;24.82;39.07;102223.94;4742836;30;20063;-72
2022/07/05 08:55:50;;;;;;;4.80;1.60;;;;;;;24.99;38.54;102217.44;4753898;30;20083;-75
2022/07/05 08:58:15;;;;;;;4.47;1.55;;;;;;;25.24;38.51;102213.56;4751409;30;20141;-69
2022/07/05 09:00:42;;;;;;;3.40;1.50;;;;;;;24.60;39.15;102228.25;4754915;30;20044;-70
2022/07/05 09:03:08;;;;;;;4.55;1.27;;;;;;;25.05;38.34;102224.75;4753270;30;20069;-71
2022/07/05 09:05:43;;;;;;;6.43;1.70;;;;;;;24.88;38.68;102220.53;4741604;30;20040;-74
2022/07/05 09:08:12;;;;;;;3.75;1.35;;;;;;;25.23;38.08;102227.91;4754042;30;20048;-71
2022/07/05 09:10:41;;;;;;;4.00;1.98;;;;;;;25.16;38.55;102224.31;4756405;30;20106;-68
2022/07/05 09:13:06;;;;;;;2.40;1.23;;;;;;;25.22;38.01;102228.91;4752408;30;20147;-72
2022/07/05 09:15:32;;;;;;;1.75;0.95;;;;;;;25.25;37.98;102225.88;4756501;30;20073;-70
2022/07/05 09:17:57;;;;;;;3.15;1.38;;;;;;;25.26;37.86;102226.69;4752870;30;20051;-70
2022/07/05 09:20:26;;;;;;;2.55;1.20;;;;;;;25.39;38.14;102223.41;4742782;30;20059;-69
2022/07/05 09:22:53;;;;;;;3.50;1.38;;;;;;;24.72;37.43;102221.50;4753670;30;20514;-68
2022/07/05 09:25:28;;;;;;;5.15;1.90;;;;;;;25.19;38.46;102231.94;4751657;30;20077;-72
2022/07/05 09:27:58;;;;;;;2.58;1.20;;;;;;;25.18;37.62;102224.94;4766568;29;20503;-66
2022/07/05 09:30:28;;;;;;;3.10;1.60;;;;;;;25.22;37.04;102242.25;4751953;30;20100;-68
2022/07/05 09:33:04;;;;;;;3.42;1.55;;;;;;;25.29;37.52;102240.50;4759446;30;20066;-67
2022/07/05 09:35:37;;;;;;;4.35;1.48;;;;;;;25.42;36.71;102237.19;4741970;30;20093;-74
2022/07/05 09:38:16;;;;;;;4.90;1.40;;;;;;;25.24;37.57;102237.53;4752449;30;20067;-68
2022/07/05 09:40:49;;;;;;;1.23;1.13;;;;;;;24.88;37.97;102236.53;4751568;30;20047;-69
2022/07/05 09:43:17;;;;;;;4.82;1.23;;;;;;;25.07;37.08;102232.56;4752433;30;20047;-67
2022/07/05 09:46:02;;;;;;;3.17;1.40;;;;;;;25.46;37.79;102232.31;4756240;30;20040;-73
2022/07/05 09:48:30;;;;;;;3.45;1.27;;;;;;;25.36;36.34;102235.28;4750316;30;20095;-77
2022/07/05 09:51:06;;;;;;;7.53;1.80;;;;;;;25.44;36.15;102229.84;4745402;30;20194;-70
2022/07/05 09:53:49;;;;;;;5.10;1.33;;;;;;;25.29;36.43;102237.00;4739471;30;21979;-73
2022/07/05 09:56:15;;;;;;;2.83;1.40;;;;;;;25.47;35.86;102237.47;4756053;30;20056;-70
2022/07/05 09:58:41;;;;;;;3.40;1.52;;;;;;;25.34;35.84;102236.47;4753403;29;20043;-72
2022/07/05 10:01:36;;;;;;;2.42;1.23;;;;;;;25.53;35.48;102231.41;4743466;30;20058;-67
2022/07/05 10:04:02;;;;;;;5.55;1.52;;;;;;;25.39;35.11;102245.56;4741535;30;20412;-69
2022/07/05 10:06:28;;;;;;;4.20;1.40;;;;;;;25.53;35.19;102247.41;4754855;30;20055;-74
2022/07/05 10:08:54;;;;;;;3.58;1.58;;;;;;;25.47;35.52;102241.97;4749659;30;20036;-66
2022/07/05 10:11:21;;;;;;;1.30;0.93;;;;;;;25.60;36.92;102248.31;4751461;30;20961;-67
2022/07/05 10:13:49;;;;;;;2.58;1.33;;;;;;;25.64;35.62;102250.63;4756164;30;20066;-69
2022/07/05 10:16:20;;;;;;;2.00;1.20;;;;;;;25.54;35.82;102251.75;4754701;30;20131;-65
2022/07/05 10:18:48;;;;;;;2.22;1.15;;;;;;;25.63;35.89;102244.47;4743269;30;20484;-73
2022/07/05 10:21:15;;;;;;;2.83;1.45;;;;;;;25.56;36.01;102249.72;4703844;30;26301;-71
2022/07/05 10:23:45;;;;;;;3.05;1.30;;;;;;;25.64;35.74;102254.13;4753120;30;20112;-78
2022/07/05 10:26:15;;;;;;;4.68;1.40;;;;;;;25.34;36.33;102263.13;4752109;30;20055;-71
2022/07/05 10:28:47;;;;;;;1.55;1.30;;;;;;;25.25;36.44;102260.53;4750455;30;20063;-69
2022/07/05 10:31:15;;;;;;;3.33;1.60;;;;;;;25.03;36.79;102257.91;4750339;30;20039;-71
2022/07/05 10:33:41;;;;;;;2.85;1.35;;;;;;;24.98;37.94;102263.75;4737631;30;20052;-75
2022/07/05 10:36:10;;;;;;;2.88;1.30;;;;;;;25.54;36.88;102277.59;4752649;30;20150;-70
2022/07/05 10:38:47;;;;;;;2.10;1.33;;;;;;;25.48;36.82;102273.78;4756608;29;20075;-71
2022/07/05 10:41:22;;;;;;;2.35;1.55;;;;;;;25.27;36.81;102274.50;4752319;30;20102;-70
2022/07/05 10:43:56;;;;;;;2.25;1.27;;;;;;;25.54;36.36;102270.41;4750678;30;20418;-76
2022/07/05 10:46:47;;;;;;;4.55;1.73;;;;;;;25.65;36.24;102263.78;4752595;30;20051;-70
2022/07/05 10:49:20;;;;;;;2.97;1.60;;;;;;;25.49;36.20;102267.44;4739680;30;20064;-74
2022/07/05 10:51:46;;;;;;;2.28;1.08;;;;;;;25.40;36.67;102270.41;4747863;30;20471;-75
2022/07/05 10:54:12;;;;;;;4.30;2.00;;;;;;;25.69;36.05;102267.78;4742529;30;20072;-74
2022/07/05 10:56:38;;;;;;;4.32;1.48;;;;;;;25.61;36.19;102286.50;4749989;30;20052;-73
2022/07/05 10:59:06;;;;;;;2.45;1.42;;;;;;;25.71;36.00;102259.59;4750347;30;20054;-71
2022/07/05 11:01:37;;;;;;;2.53;1.50;;;;;;;25.33;36.66;102256.97;4753593;30;20580;-76
2022/07/05 11:04:02;;;;;;;2.30;1.50;;;;;;;25.69;36.13;102270.47;4757443;30;20047;-72
2022/07/05 11:06:45;;;;;;;2.65;1.25;;;;;;;25.39;35.56;102266.91;4758225;30;20109;-72
2022/07/05 11:09:11;;;;;;;2.17;1.38;;;;;;;25.49;36.41;102263.94;4743551;30;20051;-78
2022/07/05 11:11:37;;;;;;;4.07;1.45;;;;;;;25.19;36.38;102263.94;4755000;30;20040;-76
2022/07/05 11:14:25;;;;;;;2.70;1.25;;;;;;;24.76;35.90;102252.09;4759049;30;20441;-76
2022/07/05 11:17:11;;;;;;;4.53;1.50;;;;;;;25.30;36.21;102251.97;4755286;30;20059;-74
2022/07/05 11:20:03;;;;;;;4.28;1.48;;;;;;;25.29;35.86;102251.16;4755916;30;20109;-76
2022/07/05 11:22:29;;;;;;;1.88;1.00;;;;;;;25.34;35.27;102252.47;4755431;30;20071;-74
2022/07/05 11:24:59;;;;;;;3.47;1.25;;;;;;;25.44;35.30;102245.84;4747713;30;20044;-77
2022/07/05 11:27:24;;;;;;;3.40;1.55;;;;;;;25.35;35.24;102238.94;4757248;30;20051;-76
2022/07/05 11:29:54;;;;;;;3.03;1.27;;;;;;;25.43;35.28;102241.53;4756910;30;20074;-75
2022/07/05 11:32:34;;;;;;;3.55;1.70;;;;;;;25.32;36.04;102257.97;4756573;30;20557;-76